メインページ
METAR-TAF:

METAR-TAF

空港 :

ファアア国際空港

タヒチ, フランス領ポリネシア

緯度: 17-33S, 経度: 149-37W, 海抜: 2m

現時点の気象観測

当レポートは29分前の21:30(UTC)に作成
北東の風 15kt
気温 30°C
湿度 62%
気圧 1012 hPa
視程10km以上
高度2300ftの雲はほとんどない
高度28000ftの千切れ雲あり

METAR: NTAA 202130Z 05015KT 9999 FEW023 BKN280 30/22 Q1012 NOSIG

時間: 11:59 (21:59 UTC)

予報

当レポートは4時間59分前の17:00(UTC)に作成
予報は20日の 18時(UTC)から 21日の 24時(UTC)まで有効
変向風 5kt
視程10km以上
高度2000ftの雲はほとんどない
高度5000ftの千切れ雲あり
20日の 18時(UTC)から 20日の 20時(UTC)まで徐々に
北東の風 15kt

TAF: NTAA 201700Z 2018/2124 VRB05KT 9999 FEW020 BKN050 BECMG 2018/2020 05015KT

4,000以上の空港の気象観測と天気予報(METAR報とTAF報)

利用可能な観測所は地図上に黄色い丸と赤い丸で示す。

丸の上にカーソルを重ねると観測所名を参照できる。

次にクリックすると気象観測と天気予報を参照できる。

マップの切り替え:黒色「×」印の緑ボタンをクリックして拡大、「-」印の緑ボタンをクリックして縮小、緑色の三角印をクリックして隣りの地図に切り替え


METAR-TAF: